createdAt,value
2019-04-03T00:01:45.652Z,1.93
2019-04-03T00:04:12.224Z,1.80
2019-04-03T00:06:38.761Z,1.93
2019-04-03T00:09:07.066Z,1.83
2019-04-03T00:11:33.804Z,1.70
2019-04-03T00:14:03.848Z,1.80
2019-04-03T00:16:30.859Z,1.83
2019-04-03T00:18:57.692Z,2.20
2019-04-03T00:21:24.472Z,2.20
2019-04-03T00:23:53.184Z,1.92
2019-04-03T00:26:21.811Z,1.50
2019-04-03T00:28:47.791Z,1.80
2019-04-03T00:31:13.594Z,1.90
2019-04-03T00:33:39.416Z,1.80
2019-04-03T00:36:05.241Z,1.73
2019-04-03T00:38:31.310Z,1.73
2019-04-03T00:40:57.104Z,1.40
2019-04-03T00:43:24.755Z,1.77
2019-04-03T00:45:50.630Z,1.70
2019-04-03T00:48:16.442Z,1.93
2019-04-03T00:50:42.754Z,2.07
2019-04-03T00:53:11.329Z,2.00
2019-04-03T00:55:37.263Z,1.55
2019-04-03T00:58:29.790Z,1.80
2019-04-03T01:00:56.328Z,2.00
2019-04-03T01:03:22.915Z,1.93
2019-04-03T01:05:48.972Z,1.40
2019-04-03T01:08:14.909Z,1.55
2019-04-03T01:10:40.805Z,1.80
2019-04-03T01:13:06.928Z,2.30
2019-04-03T01:15:32.744Z,2.00
2019-04-03T01:17:58.526Z,2.00
2019-04-03T01:20:24.562Z,2.13
2019-04-03T01:22:50.564Z,1.42
2019-04-03T01:25:16.374Z,1.97
2019-04-03T01:27:42.438Z,1.90
2019-04-03T01:30:08.372Z,2.00
2019-04-03T01:32:34.184Z,1.70
2019-04-03T01:35:00.122Z,1.63
2019-04-03T01:37:26.207Z,1.60
2019-04-03T01:39:52.186Z,1.70
2019-04-03T01:42:17.952Z,1.87
2019-04-03T01:44:44.075Z,2.00
2019-04-03T01:47:09.924Z,1.72
2019-04-03T01:49:35.741Z,2.20
2019-04-03T01:52:01.561Z,1.60
2019-04-03T01:54:27.339Z,2.17
2019-04-03T01:56:53.457Z,1.70
2019-04-03T01:59:19.535Z,2.40
2019-04-03T02:01:48.594Z,2.15
2019-04-03T02:04:14.387Z,2.50
2019-04-03T02:06:44.264Z,1.90
2019-04-03T02:09:10.473Z,2.40
2019-04-03T02:11:36.907Z,3.40
2019-04-03T02:14:02.830Z,2.45
2019-04-03T02:16:31.673Z,2.60
2019-04-03T02:18:57.758Z,2.72
2019-04-03T02:21:27.193Z,2.70
2019-04-03T02:23:52.628Z,2.60
2019-04-03T02:26:19.812Z,2.00
2019-04-03T02:28:45.623Z,3.02
2019-04-03T02:31:11.687Z,2.10
2019-04-03T02:33:37.604Z,2.20
2019-04-03T02:36:03.431Z,2.27
2019-04-03T02:38:32.369Z,2.43
2019-04-03T02:40:58.341Z,1.92
2019-04-03T02:43:27.326Z,2.20
2019-04-03T02:45:55.766Z,1.70
2019-04-03T02:48:21.160Z,1.80
2019-04-03T02:50:48.030Z,2.15
2019-04-03T02:53:17.384Z,2.27
2019-04-03T02:55:43.618Z,2.47
2019-04-03T02:58:12.702Z,1.50
2019-04-03T03:00:38.559Z,2.42
2019-04-03T03:03:07.511Z,1.80
2019-04-03T03:05:33.423Z,1.92
2019-04-03T03:07:59.442Z,1.70
2019-04-03T03:10:25.585Z,2.52
2019-04-03T03:12:51.496Z,2.05
2019-04-03T03:15:18.318Z,2.07
2019-04-03T03:17:44.488Z,2.40
2019-04-03T03:20:14.994Z,2.70
2019-04-03T03:22:41.128Z,2.25
2019-04-03T03:25:07.134Z,1.90
2019-04-03T03:27:34.484Z,2.30
2019-04-03T03:30:30.743Z,1.87
2019-04-03T03:32:36.851Z,2.17
2019-04-03T03:35:12.818Z,2.45
2019-04-03T03:37:35.037Z,2.58
2019-04-03T03:40:02.606Z,2.62
2019-04-03T03:42:31.250Z,2.12
2019-04-03T03:45:00.199Z,1.98
2019-04-03T03:47:26.219Z,2.65
2019-04-03T03:49:52.868Z,3.02
2019-04-03T03:52:18.773Z,2.60
2019-04-03T03:54:45.261Z,2.97
2019-04-03T03:57:11.449Z,3.37
2019-04-03T03:59:38.465Z,3.27
2019-04-03T04:02:06.374Z,2.50
2019-04-03T04:04:32.095Z,3.22
2019-04-03T04:07:02.098Z,2.70
2019-04-03T04:09:25.990Z,3.40
2019-04-03T04:11:52.325Z,2.60
2019-04-03T04:14:21.426Z,4.15
2019-04-03T04:16:46.366Z,3.35
2019-04-03T04:19:12.379Z,3.00
2019-04-03T04:21:38.475Z,3.50
2019-04-03T04:24:04.465Z,3.30
2019-04-03T04:26:31.682Z,2.87
2019-04-03T04:28:58.114Z,3.77
2019-04-03T04:31:23.948Z,3.03
2019-04-03T04:33:50.138Z,2.73
2019-04-03T04:36:16.232Z,3.80
2019-04-03T04:38:42.336Z,3.10
2019-04-03T04:41:08.167Z,3.30
2019-04-03T04:43:34.031Z,2.63
2019-04-03T04:45:59.826Z,3.50
2019-04-03T04:48:28.888Z,3.67
2019-04-03T04:50:55.503Z,4.60
2019-04-03T04:53:21.643Z,3.50
2019-04-03T04:55:47.503Z,3.67
2019-04-03T04:58:13.290Z,3.57
2019-04-03T05:00:39.104Z,3.93
2019-04-03T05:03:04.890Z,3.70
2019-04-03T05:05:33.810Z,3.40
2019-04-03T05:08:01.953Z,3.98
2019-04-03T05:10:27.874Z,3.37
2019-04-03T05:12:53.851Z,4.20
2019-04-03T05:15:23.785Z,3.08
2019-04-03T05:17:50.646Z,4.35
2019-04-03T05:20:19.524Z,3.10
2019-04-03T05:22:44.699Z,3.83
2019-04-03T05:25:13.484Z,4.20
2019-04-03T05:27:39.391Z,2.98
2019-04-03T05:30:08.541Z,3.40
2019-04-03T05:32:34.628Z,3.95
2019-04-03T05:35:00.432Z,4.08
2019-04-03T05:37:27.318Z,3.80
2019-04-03T05:39:55.642Z,3.20
2019-04-03T05:42:21.118Z,3.90
2019-04-03T05:44:46.925Z,4.13
2019-04-03T05:47:13.024Z,4.10
2019-04-03T05:49:39.049Z,4.28
2019-04-03T05:52:07.639Z,4.28
2019-04-03T05:54:33.459Z,3.85
2019-04-03T05:57:02.147Z,3.50
2019-04-03T05:59:27.977Z,3.50
2019-04-03T06:01:57.046Z,4.10
2019-04-03T06:04:22.862Z,4.50
2019-04-03T06:06:53.636Z,4.33
2019-04-03T06:09:20.096Z,3.95
2019-04-03T06:11:47.360Z,3.35
2019-04-03T06:14:13.220Z,4.08
2019-04-03T06:16:39.018Z,4.10
2019-04-03T06:19:06.386Z,4.00
2019-04-03T06:21:32.648Z,4.25
2019-04-03T06:23:58.486Z,4.10
2019-04-03T06:26:24.382Z,4.20
2019-04-03T06:28:52.984Z,3.70
2019-04-03T06:31:19.007Z,4.42
2019-04-03T06:33:51.030Z,4.65
2019-04-03T06:36:17.551Z,3.80
2019-04-03T06:38:44.652Z,3.35
2019-04-03T06:41:10.440Z,3.30
2019-04-03T06:43:39.201Z,4.27
2019-04-03T06:46:05.086Z,3.95
2019-04-03T06:48:31.187Z,3.43
2019-04-03T06:50:57.036Z,3.83
2019-04-03T06:53:27.278Z,3.67
2019-04-03T06:55:51.006Z,4.15
2019-04-03T06:58:16.795Z,4.67
2019-04-03T07:00:47.350Z,4.30
2019-04-03T07:03:13.896Z,3.80
2019-04-03T07:05:41.924Z,5.30
2019-04-03T07:08:07.479Z,4.78
2019-04-03T07:10:34.561Z,4.50
2019-04-03T07:13:01.008Z,4.35
2019-04-03T07:15:29.796Z,4.47
2019-04-03T07:17:55.890Z,9.08
2019-04-03T07:20:21.867Z,5.75
2019-04-03T07:22:47.949Z,5.50
2019-04-03T07:25:14.034Z,5.75
2019-04-03T07:27:42.254Z,5.22
2019-04-03T07:30:08.217Z,6.15
2019-04-03T07:32:34.653Z,5.03
2019-04-03T07:35:00.473Z,5.10
2019-04-03T07:37:29.049Z,6.27
2019-04-03T07:39:54.984Z,6.20
2019-04-03T07:42:24.905Z,6.47
2019-04-03T07:44:51.397Z,5.60
2019-04-03T07:47:20.689Z,5.80
2019-04-03T07:49:46.473Z,5.97
2019-04-03T07:52:16.789Z,7.03
2019-04-03T07:54:43.109Z,5.60
2019-04-03T07:57:10.167Z,4.93
2019-04-03T07:59:36.822Z,5.30
2019-04-03T08:02:03.170Z,4.40
2019-04-03T08:04:29.157Z,3.77
2019-04-03T08:06:55.088Z,3.87
2019-04-03T08:09:20.925Z,4.87
2019-04-03T08:11:47.760Z,3.90
2019-04-03T08:14:13.581Z,4.15
2019-04-03T08:16:42.197Z,4.03
2019-04-03T08:19:09.963Z,4.25
2019-04-03T08:21:35.782Z,3.37
2019-04-03T08:24:07.422Z,4.30
2019-04-03T08:26:32.228Z,3.67
2019-04-03T08:29:00.682Z,3.63
2019-04-03T08:31:25.789Z,4.55
2019-04-03T08:33:54.919Z,4.30
2019-04-03T08:36:25.370Z,3.85
2019-04-03T08:38:49.021Z,4.60
2019-04-03T08:41:14.882Z,3.20
2019-04-03T08:43:40.702Z,3.43
2019-04-03T08:46:09.516Z,3.97
2019-04-03T08:48:34.214Z,4.15
2019-04-03T08:51:02.213Z,3.97
2019-04-03T08:53:27.866Z,4.60
2019-04-03T08:55:56.377Z,3.10
2019-04-03T08:58:23.638Z,2.95
2019-04-03T09:00:49.377Z,3.80
2019-04-03T09:03:15.346Z,2.80
2019-04-03T09:05:44.512Z,2.75
2019-04-03T09:08:10.587Z,3.47
2019-04-03T09:10:39.359Z,2.85
2019-04-03T09:13:16.105Z,3.42
2019-04-03T09:15:32.876Z,3.00
2019-04-03T09:17:58.667Z,2.90
2019-04-03T09:20:24.499Z,2.63
2019-04-03T09:22:52.979Z,2.83
2019-04-03T09:25:18.013Z,3.05
2019-04-03T09:27:46.627Z,2.37
2019-04-03T09:30:15.409Z,2.70
2019-04-03T09:32:41.032Z,2.17
2019-04-03T09:35:07.881Z,2.58
2019-04-03T09:37:37.183Z,2.30
2019-04-03T09:40:02.058Z,2.00
2019-04-03T09:42:30.928Z,2.27
2019-04-03T09:44:56.803Z,1.82
2019-04-03T09:47:26.122Z,2.00
2019-04-03T09:49:52.094Z,1.60
2019-04-03T09:52:18.334Z,2.40
2019-04-03T09:54:44.485Z,2.02
2019-04-03T09:57:10.278Z,2.25
2019-04-03T09:59:37.780Z,2.20
2019-04-03T10:02:04.516Z,2.40
2019-04-03T10:04:30.287Z,2.00
2019-04-03T10:06:56.249Z,2.37
2019-04-03T10:09:25.202Z,2.40
2019-04-03T10:11:52.516Z,2.37
2019-04-03T10:14:21.713Z,2.10
2019-04-03T10:16:47.566Z,2.30
2019-04-03T10:19:16.468Z,2.50
2019-04-03T10:21:42.566Z,2.85
2019-04-03T10:24:11.254Z,2.80
2019-04-03T10:26:39.268Z,2.87
2019-04-03T10:29:05.101Z,2.55
2019-04-03T10:31:30.914Z,2.98
2019-04-03T10:33:56.708Z,3.20
2019-04-03T10:36:22.633Z,2.83
2019-04-03T10:38:48.828Z,2.80
2019-04-03T10:41:15.411Z,2.50
2019-04-03T10:43:41.269Z,2.50
2019-04-03T10:46:10.185Z,2.90
2019-04-03T10:48:36.015Z,7.92
2019-04-03T10:51:05.013Z,2.77
2019-04-03T10:53:31.083Z,3.20
2019-04-03T10:56:00.680Z,2.60
2019-04-03T10:58:26.944Z,2.70
2019-04-03T11:00:54.707Z,3.52
2019-04-03T11:03:20.669Z,2.90
2019-04-03T11:05:46.808Z,3.30
2019-04-03T11:08:12.597Z,3.15
2019-04-03T11:10:38.644Z,3.97
2019-04-03T11:13:05.861Z,3.50
2019-04-03T11:15:31.924Z,4.00
2019-04-03T11:18:00.711Z,3.47
2019-04-03T11:20:26.666Z,4.43
2019-04-03T11:23:06.093Z,2.70
2019-04-03T11:25:25.357Z,3.57
2019-04-03T11:27:51.168Z,3.27
2019-04-03T11:30:20.174Z,2.63
2019-04-03T11:32:45.272Z,2.97
2019-04-03T11:35:12.752Z,3.00
2019-04-03T11:37:39.389Z,3.60
2019-04-03T11:40:07.699Z,2.80
2019-04-03T11:42:33.802Z,2.90
2019-04-03T11:44:59.874Z,2.87
2019-04-03T11:47:25.719Z,2.50
2019-04-03T11:49:53.131Z,2.40
2019-04-03T11:52:19.652Z,2.27
2019-04-03T11:54:45.573Z,2.70
2019-04-03T11:57:11.327Z,2.10
2019-04-03T11:59:46.843Z,1.73
2019-04-03T12:02:12.717Z,2.50
2019-04-03T12:04:38.597Z,1.90
2019-04-03T12:07:04.636Z,1.63
2019-04-03T12:09:31.971Z,3.40
2019-04-03T12:11:58.253Z,2.13
2019-04-03T12:14:27.066Z,2.30
2019-04-03T12:16:52.958Z,2.40
2019-04-03T12:19:18.768Z,2.07
2019-04-03T12:21:44.638Z,2.50
2019-04-03T12:24:10.576Z,2.20
2019-04-03T12:26:36.717Z,2.57
2019-04-03T12:29:02.737Z,1.90
2019-04-03T12:31:33.501Z,3.00
2019-04-03T12:34:04.528Z,2.08
2019-04-03T12:36:28.236Z,2.30
2019-04-03T12:38:55.873Z,2.00
2019-04-03T12:41:22.694Z,1.30
2019-04-03T12:43:49.954Z,1.43
2019-04-03T12:46:16.289Z,1.70
2019-04-03T12:48:42.331Z,1.73
2019-04-03T12:51:11.151Z,1.53
2019-04-03T12:53:37.210Z,1.65
2019-04-03T12:56:03.070Z,1.27
2019-04-03T12:58:29.169Z,1.27
2019-04-03T13:00:55.006Z,1.42
2019-04-03T13:03:25.641Z,1.23
2019-04-03T13:05:51.745Z,1.63
2019-04-03T13:08:19.792Z,1.30
2019-04-03T13:10:48.719Z,1.13
2019-04-03T13:13:13.789Z,1.40
2019-04-03T13:15:40.241Z,1.10
2019-04-03T13:18:06.116Z,1.13
2019-04-03T13:20:32.520Z,1.23
2019-04-03T13:23:01.233Z,1.00
2019-04-03T13:25:27.316Z,1.27
2019-04-03T13:27:56.325Z,1.40
2019-04-03T13:30:22.204Z,1.00
2019-04-03T13:32:58.352Z,1.40
2019-04-03T13:35:16.753Z,1.13
2019-04-03T13:37:43.045Z,1.53
2019-04-03T13:40:09.364Z,1.73
2019-04-03T13:42:35.421Z,1.70
2019-04-03T13:45:06.121Z,1.50
2019-04-03T13:47:32.257Z,1.45
2019-04-03T13:49:58.546Z,1.10
2019-04-03T13:52:24.496Z,1.42
2019-04-03T13:54:55.312Z,1.03
2019-04-03T13:57:22.004Z,0.93
2019-04-03T13:59:48.308Z,1.00
2019-04-03T14:02:15.127Z,0.95
2019-04-03T14:04:41.245Z,1.35
2019-04-03T14:07:08.740Z,0.90
2019-04-03T14:09:35.005Z,1.20
2019-04-03T14:12:02.663Z,0.90
2019-04-03T14:14:28.868Z,0.80
2019-04-03T14:16:54.841Z,0.80
2019-04-03T14:19:24.050Z,0.90
2019-04-03T14:21:48.802Z,0.90
2019-04-03T14:24:14.670Z,0.73
2019-04-03T14:26:44.403Z,0.70
2019-04-03T14:29:09.826Z,0.90
2019-04-03T14:31:38.843Z,1.07
2019-04-03T14:34:05.157Z,1.15
2019-04-03T14:36:34.051Z,0.78
2019-04-03T14:39:02.611Z,0.98
2019-04-03T14:41:27.859Z,0.70
2019-04-03T14:43:53.673Z,1.00
2019-04-03T14:46:20.091Z,1.13
2019-04-03T14:48:45.945Z,1.15
2019-04-03T14:51:12.281Z,1.30
2019-04-03T14:53:38.267Z,0.95
2019-04-03T14:56:04.172Z,1.10
2019-04-03T14:58:33.203Z,0.90
2019-04-03T15:00:59.686Z,1.10
2019-04-03T15:03:28.920Z,1.05
2019-04-03T15:05:55.614Z,1.35
2019-04-03T15:08:24.546Z,1.15
2019-04-03T15:10:50.797Z,1.25
2019-04-03T15:13:16.595Z,0.98
2019-04-03T15:15:42.537Z,1.00
2019-04-03T15:18:12.026Z,1.13
2019-04-03T15:20:38.404Z,1.00
2019-04-03T15:23:05.889Z,1.30
2019-04-03T15:25:32.647Z,1.80
2019-04-03T15:27:59.889Z,1.62
2019-04-03T15:30:26.240Z,1.87
2019-04-03T15:32:52.781Z,1.20
2019-04-03T15:35:18.955Z,1.35
2019-04-03T15:37:44.783Z,0.90
2019-04-03T15:40:14.115Z,1.17
2019-04-03T15:42:41.419Z,1.15
2019-04-03T15:45:08.919Z,0.98
2019-04-03T15:47:39.545Z,0.80
2019-04-03T15:50:05.600Z,1.17
2019-04-03T15:52:31.697Z,0.98
2019-04-03T15:54:57.550Z,1.10
2019-04-03T15:57:23.381Z,0.90
2019-04-03T15:59:52.058Z,1.00
2019-04-03T16:02:17.222Z,0.70
2019-04-03T16:04:43.093Z,0.80
2019-04-03T16:07:09.328Z,0.80
2019-04-03T16:09:35.915Z,1.12
2019-04-03T16:12:05.697Z,1.12
2019-04-03T16:14:31.871Z,1.20
2019-04-03T16:17:01.710Z,0.70
2019-04-03T16:19:28.304Z,0.70
2019-04-03T16:21:57.349Z,0.70
2019-04-03T16:24:22.115Z,0.90
2019-04-03T16:26:48.249Z,0.80
2019-04-03T16:29:14.289Z,1.02
2019-04-03T16:31:42.933Z,0.95
2019-04-03T16:34:12.284Z,0.80
2019-04-03T16:36:36.417Z,0.70
2019-04-03T16:39:05.422Z,0.60
2019-04-03T16:41:31.730Z,0.60
2019-04-03T16:43:57.817Z,0.70
2019-04-03T16:46:23.957Z,0.70
2019-04-03T16:48:50.845Z,1.27
2019-04-03T16:51:16.958Z,0.80
2019-04-03T16:53:45.876Z,0.63
2019-04-03T16:56:12.126Z,0.70
2019-04-03T16:58:38.211Z,0.93
2019-04-03T17:01:04.352Z,0.90
2019-04-03T17:03:33.820Z,1.30
2019-04-03T17:05:59.916Z,1.25
2019-04-03T17:08:29.394Z,0.80
2019-04-03T17:10:55.220Z,0.60
2019-04-03T17:13:21.490Z,1.20
2019-04-03T17:15:47.655Z,1.20
2019-04-03T17:18:16.395Z,1.00
2019-04-03T17:20:41.718Z,0.85
2019-04-03T17:23:07.781Z,0.80
2019-04-03T17:25:46.312Z,1.00
2019-04-03T17:28:09.161Z,0.80
2019-04-03T17:30:32.913Z,0.85
2019-04-03T17:33:01.765Z,0.80
2019-04-03T17:35:26.783Z,0.90
2019-04-03T17:37:53.602Z,0.90
2019-04-03T17:40:19.567Z,0.80
2019-04-03T17:42:45.352Z,0.80
2019-04-03T17:45:16.216Z,0.87
2019-04-03T17:47:42.124Z,0.98
2019-04-03T17:50:08.340Z,0.75
2019-04-03T17:52:36.106Z,1.30
2019-04-03T17:55:04.708Z,0.80
2019-04-03T17:57:30.768Z,1.10
2019-04-03T17:59:56.668Z,0.88
2019-04-03T18:02:24.599Z,0.90
2019-04-03T18:04:51.286Z,1.17
2019-04-03T18:07:17.072Z,1.17
2019-04-03T18:09:43.039Z,1.10
2019-04-03T18:12:09.146Z,1.53
2019-04-03T18:14:34.948Z,1.40
2019-04-03T18:17:04.418Z,0.97
2019-04-03T18:19:37.363Z,0.90
2019-04-03T18:21:58.466Z,1.10
2019-04-03T18:24:24.265Z,0.95
2019-04-03T18:26:50.051Z,0.90
2019-04-03T18:29:15.879Z,0.90
2019-04-03T18:31:44.303Z,1.00
2019-04-03T18:34:12.446Z,1.00
2019-04-03T18:36:38.246Z,0.70
2019-04-03T18:39:09.691Z,0.90
2019-04-03T18:41:35.960Z,0.72
2019-04-03T18:44:01.773Z,0.93
2019-04-03T18:46:32.342Z,0.90
2019-04-03T18:49:00.862Z,0.60
2019-04-03T18:51:23.287Z,1.07
2019-04-03T18:53:49.072Z,1.17
2019-04-03T18:56:15.619Z,2.17
2019-04-03T18:58:44.943Z,1.30
2019-04-03T19:01:11.084Z,1.30
2019-04-03T19:03:36.996Z,1.35
2019-04-03T19:06:02.806Z,0.97
2019-04-03T19:08:28.640Z,0.90
2019-04-03T19:11:02.252Z,0.83
2019-04-03T19:13:25.569Z,3.98
2019-04-03T19:15:51.414Z,1.67
2019-04-03T19:18:19.662Z,1.23
2019-04-03T19:20:45.067Z,0.80
2019-04-03T19:23:11.149Z,0.87
2019-04-03T19:25:39.850Z,0.80
2019-04-03T19:28:05.660Z,0.80
2019-04-03T19:30:34.070Z,0.80
2019-04-03T19:32:59.884Z,0.90
2019-04-03T19:35:31.270Z,0.90
2019-04-03T19:37:57.061Z,0.75
2019-04-03T19:40:22.918Z,0.80
2019-04-03T19:42:49.050Z,1.00
2019-04-03T19:45:15.078Z,0.90
2019-04-03T19:47:40.898Z,1.30
2019-04-03T19:50:06.912Z,1.17
2019-04-03T19:52:37.235Z,1.62
2019-04-03T19:55:05.926Z,1.25
2019-04-03T19:57:31.975Z,1.20
2019-04-03T19:59:58.087Z,1.00
2019-04-03T20:02:27.196Z,1.30
2019-04-03T20:04:53.033Z,1.30
2019-04-03T20:07:21.827Z,1.03
2019-04-03T20:09:47.900Z,0.90
2019-04-03T20:12:16.719Z,2.12
2019-04-03T20:14:57.209Z,2.00
2019-04-03T20:17:10.858Z,1.32
2019-04-03T20:19:37.004Z,2.80
2019-04-03T20:22:03.073Z,2.83
2019-04-03T20:24:28.904Z,2.58
2019-04-03T20:26:54.693Z,3.27
2019-04-03T20:29:20.489Z,1.60
2019-04-03T20:31:46.301Z,2.47
2019-04-03T20:34:15.029Z,2.00
2019-04-03T20:36:40.856Z,1.57
2019-04-03T20:39:12.132Z,1.10
2019-04-03T20:41:37.962Z,0.62
2019-04-03T20:44:06.753Z,0.83
2019-04-03T20:46:32.860Z,0.75
2019-04-03T20:49:03.107Z,1.12
2019-04-03T20:51:29.221Z,0.70
2019-04-03T20:53:55.293Z,1.00
2019-04-03T20:56:21.353Z,1.15
2019-04-03T20:58:55.873Z,1.22
2019-04-03T21:01:14.851Z,0.80
2019-04-03T21:03:41.829Z,1.20
2019-04-03T21:06:08.717Z,0.90
2019-04-03T21:08:34.810Z,1.00
2019-04-03T21:11:02.382Z,0.90
2019-04-03T21:13:28.339Z,1.00
2019-04-03T21:15:55.858Z,0.80
2019-04-03T21:18:21.977Z,0.60
2019-04-03T21:20:50.930Z,0.80
2019-04-03T21:23:16.717Z,0.75
2019-04-03T21:25:44.863Z,0.80
2019-04-03T21:28:11.447Z,0.70
2019-04-03T21:30:37.324Z,0.80
2019-04-03T21:33:03.155Z,0.60
2019-04-03T21:35:29.002Z,0.70
2019-04-03T21:37:57.817Z,0.60
2019-04-03T21:40:23.650Z,0.70
2019-04-03T21:42:52.235Z,0.50
2019-04-03T21:45:18.066Z,0.60
2019-04-03T21:47:45.890Z,0.67
2019-04-03T21:50:12.025Z,0.60
2019-04-03T21:52:40.602Z,0.70
2019-04-03T21:55:06.590Z,0.80
2019-04-03T21:57:37.557Z,0.82
2019-04-03T22:00:06.407Z,0.90
2019-04-03T22:02:32.687Z,0.80
2019-04-03T22:04:58.801Z,0.85
2019-04-03T22:07:24.601Z,0.90
2019-04-03T22:09:50.702Z,0.90
2019-04-03T22:12:16.999Z,0.80
2019-04-03T22:14:43.421Z,1.10
2019-04-03T22:17:09.557Z,1.10
2019-04-03T22:19:36.623Z,1.02
2019-04-03T22:22:03.055Z,1.20
2019-04-03T22:24:32.417Z,1.30
2019-04-03T22:26:58.284Z,1.50
2019-04-03T22:29:27.174Z,1.37
2019-04-03T22:31:54.462Z,1.85
2019-04-03T22:34:23.761Z,1.32
2019-04-03T22:36:49.830Z,1.85
2019-04-03T22:39:15.868Z,3.33
2019-04-03T22:41:42.909Z,2.87
2019-04-03T22:44:09.231Z,2.30
2019-04-03T22:46:35.042Z,2.43
2019-04-03T22:49:01.138Z,3.17
2019-04-03T22:51:30.104Z,1.40
2019-04-03T22:53:55.889Z,1.45
2019-04-03T22:56:21.861Z,1.60
2019-04-03T22:58:47.738Z,1.13
2019-04-03T23:01:16.448Z,1.50
2019-04-03T23:03:42.241Z,2.35
2019-04-03T23:06:13.694Z,2.47
2019-04-03T23:08:39.545Z,1.67
2019-04-03T23:11:08.387Z,1.50
2019-04-03T23:13:35.661Z,1.45
2019-04-03T23:16:01.919Z,1.60
2019-04-03T23:18:28.017Z,1.20
2019-04-03T23:20:53.861Z,1.20
2019-04-03T23:23:19.715Z,0.97
2019-04-03T23:25:45.505Z,1.00
2019-04-03T23:28:12.452Z,1.10
2019-04-03T23:30:39.122Z,2.00
2019-04-03T23:33:07.321Z,1.60
2019-04-03T23:35:33.323Z,2.00
2019-04-03T23:38:04.399Z,1.70
2019-04-03T23:40:30.189Z,2.52
2019-04-03T23:42:59.290Z,2.03
2019-04-03T23:45:27.004Z,1.87
2019-04-03T23:47:53.125Z,1.72
2019-04-03T23:50:19.987Z,1.92
2019-04-03T23:52:46.655Z,1.30
2019-04-03T23:55:12.483Z,1.60
2019-04-03T23:57:40.293Z,1.33
